createdAt,value
2023-03-01T00:01:16.652Z,103291.72
2023-03-01T00:03:43.708Z,103280.03
2023-03-01T00:06:11.795Z,103287.00
2023-03-01T00:08:39.645Z,103280.41
2023-03-01T00:11:07.884Z,103291.03
2023-03-01T00:13:37.344Z,103284.00
2023-03-01T00:16:07.433Z,103276.97
2023-03-01T00:18:34.763Z,103289.06
2023-03-01T00:21:01.905Z,103272.38
2023-03-01T00:23:28.967Z,103277.34
2023-03-01T00:25:56.919Z,103288.13
2023-03-01T00:28:24.378Z,103274.22
2023-03-01T00:30:51.702Z,103260.72
2023-03-01T00:33:19.437Z,103273.22
2023-03-01T00:35:46.340Z,103279.66
2023-03-01T00:38:13.556Z,103275.53
2023-03-01T00:40:40.515Z,103273.47
2023-03-01T00:43:07.450Z,103262.84
2023-03-01T00:45:34.588Z,103270.75
2023-03-01T00:48:01.686Z,103278.44
2023-03-01T00:50:28.613Z,103271.75
2023-03-01T00:52:57.170Z,103280.06
2023-03-01T00:55:24.886Z,103281.28
2023-03-01T00:57:52.287Z,103279.41
2023-03-01T01:00:20.457Z,103275.72
2023-03-01T01:02:48.597Z,103266.97
2023-03-01T01:05:15.865Z,103276.59
2023-03-01T01:07:42.917Z,103269.56
2023-03-01T01:10:13.932Z,103265.19
2023-03-01T01:12:40.898Z,103267.91
2023-03-01T01:15:08.540Z,103271.44
2023-03-01T01:17:36.177Z,103268.78
2023-03-01T01:20:03.299Z,103265.69
2023-03-01T01:22:30.397Z,103255.97
2023-03-01T01:24:58.021Z,103262.63
2023-03-01T01:27:25.458Z,103264.75
2023-03-01T01:29:54.311Z,103261.41
2023-03-01T01:32:21.191Z,103254.72
2023-03-01T01:34:48.262Z,103256.41
2023-03-01T01:37:16.792Z,103245.16
2023-03-01T01:39:46.048Z,103248.94
2023-03-01T01:42:17.427Z,103237.69
2023-03-01T01:44:47.679Z,103240.16
2023-03-01T01:47:19.912Z,103234.31
2023-03-01T01:49:55.503Z,103237.75
2023-03-01T01:52:31.892Z,103243.16
2023-03-01T01:55:02.230Z,103238.81
2023-03-01T01:57:38.353Z,103236.75
2023-03-01T02:00:19.147Z,103218.19
2023-03-01T02:02:50.351Z,103211.91
2023-03-01T02:05:28.785Z,103210.84
2023-03-01T02:07:56.996Z,103210.03
2023-03-01T02:10:25.131Z,103201.88
2023-03-01T02:12:53.602Z,103197.06
2023-03-01T02:15:20.743Z,103211.38
2023-03-01T02:17:47.651Z,103206.34
2023-03-01T02:20:34.515Z,103195.09
2023-03-01T02:23:01.875Z,103195.03
2023-03-01T02:25:35.180Z,103195.63
2023-03-01T02:28:17.319Z,103190.38
2023-03-01T02:31:07.825Z,103192.03
2023-03-01T02:33:37.716Z,103176.75
2023-03-01T02:36:09.111Z,103177.53
2023-03-01T02:38:36.393Z,103182.69
2023-03-01T02:41:05.807Z,103175.84
2023-03-01T02:43:34.174Z,103174.38
2023-03-01T02:46:07.081Z,103170.25
2023-03-01T02:48:54.047Z,103167.75
2023-03-01T02:51:23.680Z,103159.41
2023-03-01T02:54:19.202Z,103159.03
2023-03-01T02:56:50.006Z,103155.72
2023-03-01T02:59:21.492Z,103154.13
2023-03-01T03:01:49.189Z,103151.91
2023-03-01T03:04:22.115Z,103150.31
2023-03-01T03:06:52.136Z,103149.09
2023-03-01T03:09:19.371Z,103158.09
2023-03-01T03:11:47.381Z,103163.94
2023-03-01T03:14:17.883Z,103160.63
2023-03-01T03:16:51.739Z,103158.56
2023-03-01T03:19:20.305Z,103158.19
2023-03-01T03:21:47.175Z,103150.50
2023-03-01T03:24:14.118Z,103151.13
2023-03-01T03:26:41.003Z,103155.47
2023-03-01T03:29:07.833Z,103156.31
2023-03-01T03:31:35.009Z,103145.28
2023-03-01T03:34:01.895Z,103145.72
2023-03-01T03:36:28.898Z,103142.19
2023-03-01T03:38:57.223Z,103139.94
2023-03-01T03:41:24.820Z,103145.56
2023-03-01T03:43:51.686Z,103141.19
2023-03-01T03:46:18.619Z,103138.50
2023-03-01T03:48:46.910Z,103145.50
2023-03-01T03:51:18.501Z,103138.38
2023-03-01T03:53:46.446Z,103138.22
2023-03-01T03:56:13.698Z,103141.41
2023-03-01T03:58:40.509Z,103141.25
2023-03-01T04:01:07.662Z,103137.94
2023-03-01T04:03:36.265Z,103140.41
2023-03-01T04:06:05.025Z,103146.44
2023-03-01T04:08:32.605Z,103138.69
2023-03-01T04:11:23.001Z,103143.47
2023-03-01T04:13:49.995Z,103135.91
2023-03-01T04:16:17.060Z,103129.22
2023-03-01T04:18:44.678Z,103120.09
2023-03-01T04:21:12.301Z,103128.00
2023-03-01T04:23:40.213Z,103130.53
2023-03-01T04:26:07.194Z,103117.06
2023-03-01T04:28:39.966Z,103126.06
2023-03-01T04:31:17.651Z,103124.44
2023-03-01T04:33:49.637Z,103124.63
2023-03-01T04:36:18.964Z,103131.25
2023-03-01T04:38:49.553Z,103130.84
2023-03-01T04:41:18.917Z,103140.59
2023-03-01T04:43:46.519Z,103134.38
2023-03-01T04:46:16.965Z,103129.56
2023-03-01T04:48:45.424Z,103132.09
2023-03-01T04:51:16.827Z,103133.84
2023-03-01T04:53:44.119Z,103125.19
2023-03-01T04:56:10.952Z,103117.28
2023-03-01T04:58:38.258Z,103116.44
2023-03-01T05:01:17.660Z,103119.41
2023-03-01T05:03:46.497Z,103121.53
2023-03-01T05:06:13.692Z,103114.75
2023-03-01T05:08:42.297Z,103112.47
2023-03-01T05:11:10.023Z,103106.00
2023-03-01T05:13:39.047Z,103109.09
2023-03-01T05:16:08.643Z,103104.50
2023-03-01T05:18:36.168Z,103119.28
2023-03-01T05:21:09.030Z,103100.41
2023-03-01T05:23:37.232Z,103102.13
2023-03-01T05:26:09.430Z,103096.75
2023-03-01T05:28:39.114Z,103097.00
2023-03-01T05:31:10.697Z,103092.81
2023-03-01T05:33:41.974Z,103090.53
2023-03-01T05:36:10.711Z,103080.97
2023-03-01T05:38:37.550Z,103069.09
2023-03-01T05:41:04.811Z,103071.97
2023-03-01T05:43:35.021Z,103073.66
2023-03-01T05:46:02.645Z,103072.91
2023-03-01T05:48:29.625Z,103072.72
2023-03-01T05:51:01.143Z,103054.03
2023-03-01T05:53:28.245Z,103075.03
2023-03-01T05:55:55.280Z,103063.19
2023-03-01T05:58:22.759Z,103063.63
2023-03-01T06:00:54.105Z,103061.53
2023-03-01T06:03:22.223Z,103065.50
2023-03-01T06:05:49.172Z,103068.38
2023-03-01T06:08:16.069Z,103065.06
2023-03-01T06:10:43.102Z,103062.97
2023-03-01T06:13:10.246Z,103061.09
2023-03-01T06:15:37.158Z,103060.06
2023-03-01T06:18:04.262Z,103054.66
2023-03-01T06:20:31.302Z,103056.09
2023-03-01T06:22:58.807Z,103057.97
2023-03-01T06:25:27.719Z,103054.03
2023-03-01T06:27:55.094Z,103057.59
2023-03-01T06:30:23.352Z,103072.31
2023-03-01T06:32:51.283Z,103074.59
2023-03-01T06:35:19.698Z,103076.25
2023-03-01T06:37:48.065Z,103076.69
2023-03-01T06:40:16.330Z,103079.13
2023-03-01T06:42:48.231Z,103067.28
2023-03-01T06:45:15.169Z,103071.59
2023-03-01T06:47:42.246Z,103067.03
2023-03-01T06:50:10.023Z,103068.06
2023-03-01T06:52:36.917Z,103071.84
2023-03-01T06:55:04.306Z,103077.84
2023-03-01T06:57:31.223Z,103081.78
2023-03-01T06:59:58.412Z,103076.09
2023-03-01T07:02:25.751Z,103082.75
2023-03-01T07:04:53.352Z,103088.13
2023-03-01T07:07:20.339Z,103098.66
2023-03-01T07:09:49.363Z,103083.91
2023-03-01T07:12:16.359Z,103089.25
2023-03-01T07:14:45.065Z,103090.69
2023-03-01T07:17:12.111Z,103092.13
2023-03-01T07:19:39.053Z,103093.41
2023-03-01T07:22:08.783Z,103092.16
2023-03-01T07:24:35.884Z,103092.34
2023-03-01T07:27:02.889Z,103096.69
2023-03-01T07:29:29.958Z,103090.41
2023-03-01T07:31:57.246Z,103087.91
2023-03-01T07:34:24.131Z,103094.31
2023-03-01T07:36:51.102Z,103100.69
2023-03-01T07:39:19.641Z,103088.41
2023-03-01T07:41:46.974Z,103097.13
2023-03-01T07:44:13.924Z,103098.56
2023-03-01T07:46:40.772Z,103097.91
2023-03-01T07:49:07.886Z,103103.69
2023-03-01T07:51:34.833Z,103111.72
2023-03-01T07:54:01.824Z,103111.69
2023-03-01T07:56:29.324Z,103110.81
2023-03-01T07:58:56.389Z,103108.19
2023-03-01T08:01:23.640Z,103103.31
2023-03-01T08:03:50.579Z,103107.63
2023-03-01T08:06:18.709Z,103107.78
2023-03-01T08:08:46.299Z,103099.81
2023-03-01T08:11:15.378Z,103105.59
2023-03-01T08:13:43.637Z,103103.28
2023-03-01T08:16:16.045Z,103104.88
2023-03-01T08:18:44.373Z,103108.09
2023-03-01T08:21:14.040Z,103116.94
2023-03-01T08:23:42.075Z,103120.88
2023-03-01T08:26:20.923Z,103112.09
2023-03-01T08:28:49.951Z,103099.50
2023-03-01T08:31:32.746Z,103091.44
2023-03-01T08:34:02.069Z,103093.59
2023-03-01T08:36:35.849Z,103087.41
2023-03-01T08:39:03.762Z,103088.34
2023-03-01T08:41:30.843Z,103088.03
2023-03-01T08:44:00.063Z,103086.44
2023-03-01T08:46:38.764Z,103081.84
2023-03-01T08:49:08.134Z,103092.97
2023-03-01T08:51:37.817Z,103080.22
2023-03-01T08:54:06.862Z,103087.56
2023-03-01T08:56:34.461Z,103083.31
2023-03-01T08:59:01.317Z,103085.81
2023-03-01T09:01:28.344Z,103084.38
2023-03-01T09:03:55.414Z,103087.34
2023-03-01T09:06:22.750Z,103079.41
2023-03-01T09:08:51.422Z,103075.41
2023-03-01T09:11:22.364Z,103078.31
2023-03-01T09:13:49.880Z,103084.81
2023-03-01T09:16:20.290Z,103089.94
2023-03-01T09:18:52.139Z,103090.03
2023-03-01T09:21:33.814Z,103094.59
2023-03-01T09:24:06.603Z,103088.59
2023-03-01T09:26:33.851Z,103079.81
2023-03-01T09:29:01.153Z,103082.38
2023-03-01T09:31:28.432Z,103080.59
2023-03-01T09:33:56.036Z,103066.06
2023-03-01T09:36:26.494Z,103069.34
2023-03-01T09:38:54.350Z,103073.59
2023-03-01T09:41:24.359Z,103071.78
2023-03-01T09:44:00.222Z,103074.50
2023-03-01T09:46:28.398Z,103065.69
2023-03-01T09:49:12.955Z,103080.09
2023-03-01T09:51:40.109Z,103082.75
2023-03-01T09:54:09.386Z,103086.38
2023-03-01T09:57:01.420Z,103079.16
2023-03-01T09:59:43.140Z,103078.53
2023-03-01T10:02:48.097Z,103074.63
2023-03-01T10:05:28.287Z,103072.94
2023-03-01T10:08:23.018Z,103084.78
2023-03-01T10:10:50.740Z,103086.81
2023-03-01T10:13:30.553Z,103088.72
2023-03-01T10:16:06.869Z,103091.56
2023-03-01T10:18:37.834Z,103090.31
2023-03-01T10:21:16.227Z,103081.59
2023-03-01T10:23:43.667Z,103080.06
2023-03-01T10:26:13.615Z,103080.13
2023-03-01T10:29:04.224Z,103066.25
2023-03-01T10:31:47.086Z,103068.84
2023-03-01T10:34:19.732Z,103063.78
2023-03-01T10:36:50.651Z,103053.69
2023-03-01T10:39:21.197Z,103049.13
2023-03-01T10:42:00.555Z,103051.41
2023-03-01T10:44:44.127Z,103048.13
2023-03-01T10:47:21.428Z,103044.91
2023-03-01T10:49:54.095Z,103045.50
2023-03-01T10:52:24.651Z,103040.34
2023-03-01T10:55:03.988Z,103039.34
2023-03-01T10:57:39.407Z,103043.44
2023-03-01T11:00:14.387Z,103044.34
2023-03-01T11:02:41.459Z,103035.88
2023-03-01T11:05:20.692Z,103047.94
2023-03-01T11:07:48.706Z,103056.44
2023-03-01T11:10:20.219Z,103051.81
2023-03-01T11:12:47.230Z,103050.44
2023-03-01T11:15:29.134Z,103039.78
2023-03-01T11:18:08.957Z,103045.78
2023-03-01T11:20:40.774Z,103044.41
2023-03-01T11:23:13.659Z,103040.88
2023-03-01T11:25:49.007Z,103044.16
2023-03-01T11:28:18.953Z,103046.94
2023-03-01T11:31:13.270Z,103042.00
2023-03-01T11:33:52.223Z,103040.38
2023-03-01T11:36:42.689Z,103045.59
2023-03-01T11:39:23.420Z,103047.78
2023-03-01T11:42:09.311Z,103040.38
2023-03-01T11:44:44.254Z,103035.19
2023-03-01T11:47:39.803Z,103033.81
2023-03-01T11:50:12.590Z,103023.94
2023-03-01T11:53:01.476Z,103019.31
2023-03-01T11:55:44.841Z,103021.22
2023-03-01T11:58:20.785Z,103019.00
2023-03-01T12:00:47.632Z,103015.72
2023-03-01T12:03:48.078Z,103017.63
2023-03-01T12:06:28.525Z,103009.66
2023-03-01T12:09:01.353Z,103004.19
2023-03-01T12:11:41.223Z,103000.38
2023-03-01T12:14:14.310Z,103003.91
2023-03-01T12:17:05.529Z,102989.13
2023-03-01T12:19:36.776Z,102989.38
2023-03-01T12:22:06.657Z,102986.06
2023-03-01T12:24:58.185Z,102981.16
2023-03-01T12:27:37.147Z,102971.81
2023-03-01T12:30:22.684Z,102978.31
2023-03-01T12:33:17.151Z,102984.91
2023-03-01T12:35:47.190Z,102976.69
2023-03-01T12:38:20.851Z,102969.00
2023-03-01T12:41:11.635Z,102967.34
2023-03-01T12:43:53.264Z,102965.69
2023-03-01T12:46:45.339Z,102961.28
2023-03-01T12:49:18.637Z,102964.50
2023-03-01T12:51:56.888Z,102966.44
2023-03-01T12:54:42.957Z,102965.06
2023-03-01T12:57:22.347Z,102954.38
2023-03-01T12:59:49.246Z,102953.47
2023-03-01T13:02:27.709Z,102963.03
2023-03-01T13:05:01.354Z,102955.69
2023-03-01T13:07:36.853Z,102947.47
2023-03-01T13:10:20.570Z,102940.84
2023-03-01T13:12:50.529Z,102940.22
2023-03-01T13:15:23.671Z,102943.44
2023-03-01T13:17:58.088Z,102935.72
2023-03-01T13:20:35.328Z,102932.13
2023-03-01T13:23:13.108Z,102923.34
2023-03-01T13:26:01.017Z,102922.69
2023-03-01T13:28:46.103Z,102922.44
2023-03-01T13:31:19.756Z,102922.38
2023-03-01T13:33:57.084Z,102920.28
2023-03-01T13:36:30.645Z,102920.59
2023-03-01T13:39:01.014Z,102917.78
2023-03-01T13:41:40.485Z,102913.13
2023-03-01T13:44:28.119Z,102916.44
2023-03-01T13:47:04.839Z,102903.75
2023-03-01T13:49:46.578Z,102906.50
2023-03-01T13:52:35.970Z,102914.53
2023-03-01T13:55:08.151Z,102912.94
2023-03-01T13:57:40.301Z,102918.44
2023-03-01T14:00:08.565Z,102906.03
2023-03-01T14:02:37.172Z,102915.03
2023-03-01T14:05:04.515Z,102897.16
2023-03-01T14:07:31.521Z,102891.72
2023-03-01T14:10:04.519Z,102898.81
2023-03-01T14:12:45.452Z,102900.16
2023-03-01T14:15:15.181Z,102893.00
2023-03-01T14:17:51.007Z,102900.97
2023-03-01T14:20:27.028Z,102896.16
2023-03-01T14:22:57.391Z,102880.81
2023-03-01T14:25:26.123Z,102884.34
2023-03-01T14:27:59.361Z,102878.38
2023-03-01T14:30:47.213Z,102871.88
2023-03-01T14:33:25.323Z,102878.78
2023-03-01T14:35:59.705Z,102869.91
2023-03-01T14:38:40.056Z,102866.59
2023-03-01T14:41:11.495Z,102848.53
2023-03-01T14:43:42.666Z,102853.97
2023-03-01T14:46:22.657Z,102855.31
2023-03-01T14:48:52.279Z,102843.41
2023-03-01T14:51:19.338Z,102850.22
2023-03-01T14:53:51.329Z,102855.69
2023-03-01T14:56:19.862Z,102854.38
2023-03-01T14:58:50.139Z,102851.06
2023-03-01T15:01:19.125Z,102841.19
2023-03-01T15:03:50.906Z,102843.06
2023-03-01T15:06:22.919Z,102833.72
2023-03-01T15:08:53.951Z,102833.94
2023-03-01T15:11:28.363Z,102834.16
2023-03-01T15:13:55.605Z,102827.59
2023-03-01T15:16:33.774Z,102817.81
2023-03-01T15:19:07.632Z,102811.00
2023-03-01T15:21:44.085Z,102808.00
2023-03-01T15:24:20.703Z,102814.59
2023-03-01T15:27:02.927Z,102811.03
2023-03-01T15:29:34.376Z,102807.03
2023-03-01T15:32:05.229Z,102805.53
2023-03-01T15:34:38.395Z,102808.84
2023-03-01T15:37:28.548Z,102809.44
2023-03-01T15:39:57.266Z,102809.75
2023-03-01T15:42:30.081Z,102805.66
2023-03-01T15:45:22.622Z,102795.28
2023-03-01T15:48:03.047Z,102791.50
2023-03-01T15:50:36.874Z,102789.66
2023-03-01T15:53:15.600Z,102794.88
2023-03-01T15:55:43.007Z,102788.63
2023-03-01T15:58:21.535Z,102785.66
2023-03-01T16:01:00.767Z,102783.75
2023-03-01T16:03:29.167Z,102776.41
2023-03-01T16:05:56.091Z,102773.41
2023-03-01T16:08:22.941Z,102782.50
2023-03-01T16:10:52.101Z,102772.91
2023-03-01T16:13:19.133Z,102777.59
2023-03-01T16:15:46.028Z,102783.97
2023-03-01T16:18:13.159Z,102781.75
2023-03-01T16:20:41.197Z,102786.44
2023-03-01T16:23:11.389Z,102777.44
2023-03-01T16:25:38.903Z,102776.69
2023-03-01T16:28:09.802Z,102777.03
2023-03-01T16:30:43.216Z,102782.59
2023-03-01T16:33:26.700Z,102782.34
2023-03-01T16:35:57.354Z,102778.06
2023-03-01T16:38:24.591Z,102791.50
2023-03-01T16:40:52.829Z,102789.56
2023-03-01T16:43:19.736Z,102782.47
2023-03-01T16:45:47.564Z,102792.34
2023-03-01T16:48:15.045Z,102775.94
2023-03-01T16:50:41.953Z,102774.88
2023-03-01T16:53:08.940Z,102782.56
2023-03-01T16:55:36.133Z,102777.66
2023-03-01T16:58:03.573Z,102772.19
2023-03-01T17:00:30.778Z,102761.28
2023-03-01T17:02:57.794Z,102775.50
2023-03-01T17:05:24.891Z,102768.13
2023-03-01T17:07:52.270Z,102777.47
2023-03-01T17:10:19.528Z,102765.72
2023-03-01T17:12:50.564Z,102772.00
2023-03-01T17:15:17.676Z,102780.22
2023-03-01T17:17:44.708Z,102774.47
2023-03-01T17:20:12.062Z,102781.84
2023-03-01T17:22:39.212Z,102771.47
2023-03-01T17:25:09.169Z,102781.56
2023-03-01T17:27:37.920Z,102779.63
2023-03-01T17:30:06.810Z,102775.00
2023-03-01T17:32:33.865Z,102782.09
2023-03-01T17:35:00.837Z,102776.63
2023-03-01T17:37:28.134Z,102787.28
2023-03-01T17:39:55.073Z,102783.44
2023-03-01T17:42:22.893Z,102776.06
2023-03-01T17:44:50.958Z,102783.16
2023-03-01T17:47:17.877Z,102788.03
2023-03-01T17:49:44.844Z,102788.03
2023-03-01T17:52:11.810Z,102784.47
2023-03-01T17:54:38.710Z,102790.72
2023-03-01T17:57:05.565Z,102801.34
2023-03-01T17:59:34.193Z,102801.88
2023-03-01T18:02:02.238Z,102806.25
2023-03-01T18:04:29.850Z,102802.69
2023-03-01T18:06:57.883Z,102804.59
2023-03-01T18:09:27.747Z,102802.41
2023-03-01T18:11:54.671Z,102808.38
2023-03-01T18:14:21.623Z,102811.66
2023-03-01T18:16:48.733Z,102812.47
2023-03-01T18:19:15.672Z,102808.63
2023-03-01T18:21:44.133Z,102818.41
2023-03-01T18:24:11.288Z,102818.69
2023-03-01T18:26:39.932Z,102825.22
2023-03-01T18:29:08.094Z,102825.22
2023-03-01T18:31:35.285Z,102827.09
2023-03-01T18:34:02.304Z,102822.16
2023-03-01T18:36:32.303Z,102817.47
2023-03-01T18:38:59.471Z,102822.38
2023-03-01T18:41:28.477Z,102812.00
2023-03-01T18:43:57.550Z,102824.00
2023-03-01T18:46:25.850Z,102819.34
2023-03-01T18:48:54.575Z,102825.03
2023-03-01T18:51:25.957Z,102820.94
2023-03-01T18:53:53.797Z,102817.09
2023-03-01T18:56:20.809Z,102811.91
2023-03-01T18:58:47.869Z,102818.97
2023-03-01T19:01:18.166Z,102825.22
2023-03-01T19:03:47.471Z,102829.53
2023-03-01T19:06:15.104Z,102822.44
2023-03-01T19:08:44.372Z,102831.19
2023-03-01T19:11:13.160Z,102826.56
2023-03-01T19:13:41.092Z,102832.00
2023-03-01T19:16:12.101Z,102828.97
2023-03-01T19:18:42.404Z,102826.50
2023-03-01T19:21:11.365Z,102844.22
2023-03-01T19:23:39.035Z,102842.13
2023-03-01T19:26:09.385Z,102850.31
2023-03-01T19:28:39.217Z,102834.78
2023-03-01T19:31:10.850Z,102850.16
2023-03-01T19:33:41.963Z,102840.34
2023-03-01T19:36:11.358Z,102839.00
2023-03-01T19:38:40.479Z,102837.38
2023-03-01T19:41:10.027Z,102834.06
2023-03-01T19:43:37.051Z,102841.19
2023-03-01T19:46:04.539Z,102833.00
2023-03-01T19:48:31.508Z,102836.28
2023-03-01T19:50:58.690Z,102836.84
2023-03-01T19:53:25.894Z,102838.78
2023-03-01T19:56:00.590Z,102845.59
2023-03-01T19:58:29.493Z,102844.53
2023-03-01T20:00:59.013Z,102838.78
2023-03-01T20:03:31.207Z,102843.16
2023-03-01T20:05:59.262Z,102850.50
2023-03-01T20:08:26.210Z,102854.63
2023-03-01T20:10:53.191Z,102859.81
2023-03-01T20:13:21.370Z,102852.50
2023-03-01T20:15:48.469Z,102852.78
2023-03-01T20:18:15.484Z,102851.13
2023-03-01T20:20:42.445Z,102856.59
2023-03-01T20:23:09.833Z,102853.56
2023-03-01T20:25:36.727Z,102851.13
2023-03-01T20:28:03.878Z,102845.38
2023-03-01T20:30:31.499Z,102850.31
2023-03-01T20:32:58.604Z,102846.81
2023-03-01T20:35:25.588Z,102850.34
2023-03-01T20:37:53.607Z,102844.63
2023-03-01T20:40:21.504Z,102845.69
2023-03-01T20:42:48.423Z,102840.53
2023-03-01T20:45:15.537Z,102848.19
2023-03-01T20:47:42.380Z,102846.56
2023-03-01T20:50:09.971Z,102848.19
2023-03-01T20:52:47.063Z,102852.81
2023-03-01T20:55:15.533Z,102863.41
2023-03-01T20:57:42.733Z,102859.31
2023-03-01T21:00:10.489Z,102859.84
2023-03-01T21:02:38.864Z,102864.47
2023-03-01T21:05:08.401Z,102862.56
2023-03-01T21:07:35.818Z,102861.19
2023-03-01T21:10:02.964Z,102866.56
2023-03-01T21:12:31.166Z,102880.28
2023-03-01T21:14:58.312Z,102864.69
2023-03-01T21:17:25.247Z,102877.78
2023-03-01T21:19:52.171Z,102866.84
2023-03-01T21:22:19.302Z,102867.94
2023-03-01T21:24:46.273Z,102867.41
2023-03-01T21:27:13.237Z,102864.69
2023-03-01T21:29:43.532Z,102864.97
2023-03-01T21:32:13.328Z,102864.44
2023-03-01T21:34:41.477Z,102863.06
2023-03-01T21:37:10.529Z,102859.53
2023-03-01T21:39:38.051Z,102857.34
2023-03-01T21:42:05.991Z,102847.78
2023-03-01T21:44:33.473Z,102849.97
2023-03-01T21:47:00.422Z,102845.28
2023-03-01T21:49:27.704Z,102846.59
2023-03-01T21:51:54.758Z,102857.53
2023-03-01T21:54:22.055Z,102855.88
2023-03-01T21:56:50.864Z,102854.50
2023-03-01T21:59:22.878Z,102846.63
2023-03-01T22:01:52.209Z,102853.75
2023-03-01T22:04:20.109Z,102852.69
2023-03-01T22:06:47.311Z,102846.19
2023-03-01T22:09:23.306Z,102847.28
2023-03-01T22:11:58.573Z,102856.28
2023-03-01T22:14:26.599Z,102850.88
2023-03-01T22:16:53.777Z,102853.56
2023-03-01T22:19:22.348Z,102861.50
2023-03-01T22:21:52.267Z,102854.38
2023-03-01T22:24:21.868Z,102854.41
2023-03-01T22:26:52.679Z,102855.56
2023-03-01T22:29:23.602Z,102851.88
2023-03-01T22:31:51.523Z,102853.69
2023-03-01T22:34:18.737Z,102854.22
2023-03-01T22:36:47.379Z,102862.38
2023-03-01T22:39:17.324Z,102851.47
2023-03-01T22:41:46.951Z,102852.28
2023-03-01T22:44:16.013Z,102854.72
2023-03-01T22:46:44.363Z,102857.47
2023-03-01T22:49:11.922Z,102862.66
2023-03-01T22:51:40.704Z,102855.31
2023-03-01T22:54:09.623Z,102860.75
2023-03-01T22:56:38.327Z,102857.22
2023-03-01T22:59:10.728Z,102868.38
2023-03-01T23:01:39.672Z,102868.94
2023-03-01T23:04:07.431Z,102863.44
2023-03-01T23:06:35.464Z,102861.81
2023-03-01T23:09:07.781Z,102862.88
2023-03-01T23:11:34.789Z,102856.34
2023-03-01T23:14:01.693Z,102851.47
2023-03-01T23:16:28.752Z,102851.75
2023-03-01T23:19:00.671Z,102853.44
2023-03-01T23:21:28.013Z,102841.19
2023-03-01T23:23:56.197Z,102844.97
2023-03-01T23:26:26.187Z,102857.53
2023-03-01T23:28:53.136Z,102844.47
2023-03-01T23:31:20.012Z,102853.75
2023-03-01T23:33:47.422Z,102848.22
2023-03-01T23:36:14.689Z,102845.97
2023-03-01T23:38:42.335Z,102848.66
2023-03-01T23:41:14.086Z,102844.81
2023-03-01T23:43:45.011Z,102842.63
2023-03-01T23:46:14.430Z,102840.72
2023-03-01T23:48:42.408Z,102842.09
2023-03-01T23:51:09.649Z,102849.75
2023-03-01T23:53:39.536Z,102848.66
2023-03-01T23:56:07.999Z,102848.13
2023-03-01T23:58:35.060Z,102842.66
